Time;durP1;ratioP1;P1;durP2;ratioP2;P2;SDS_P1;SDS_P2;PMS_P1;PMS_P2;Temp;Humidity;BMP_temperature;BMP_pressure;BME280_temperature;BME280_humidity;BME280_pressure;Samples;Min_cycle;Max_cycle;Signal;HPM_P1;HPM_P2
2019/05/12 00:00:41;;;;;;;0.7;0.7;;;;;;;11.37;72.73145;962.5515;;;;
2019/05/12 00:03:00;;;;;;;1.3;0.9;;;;;;;11.54;73.08984;962.5989;;;;
2019/05/12 00:05:25;;;;;;;1.3;0.9;;;;;;;11.8;71.47461;962.5101;;;;
2019/05/12 00:07:50;;;;;;;1.1;0.9;;;;;;;11.61;72.95996;962.5215;;;;
2019/05/12 00:10:15;;;;;;;1.8;1;;;;;;;11.15;74.67676;962.4822;;;;
2019/05/12 00:12:41;;;;;;;1.1;1;;;;;;;11.44;73.74219;962.4953;;;;
2019/05/12 00:15:06;;;;;;;1.4;1;;;;;;;11.68;72.32617;962.4911;;;;
2019/05/12 00:17:31;;;;;;;1.1;1;;;;;;;11.89;71.94922;962.5018;;;;
2019/05/12 00:19:57;;;;;;;1.8;1.1;;;;;;;11.22;74.08008;962.603;;;;
2019/05/12 00:22:23;;;;;;;1.5;1.1;;;;;;;11.44;73.44824;962.5656;;;;
2019/05/12 00:24:47;;;;;;;1.1;1;;;;;;;11.41;73.24414;962.6738;;;;
2019/05/12 00:27:14;;;;;;;1.2;1.1;;;;;;;11.61;72.23145;962.7132;;;;
2019/05/12 00:29:37;;;;;;;1.9;1.1;;;;;;;11.57;72.35449;962.8073;;;;
2019/05/12 00:32:03;;;;;;;1.1;1;;;;;;;11.7;71.50684;962.8575;;;;
2019/05/12 00:34:28;;;;;;;1.2;1.1;;;;;;;11.98;70.69531;962.7814;;;;
2019/05/12 00:36:53;;;;;;;1.2;1.1;;;;;;;11.8;70.98242;962.9171;;;;
2019/05/12 00:39:18;;;;;;;1.5;1.3;;;;;;;11.38;73.06152;962.863;;;;
2019/05/12 00:41:43;;;;;;;1.5;1.3;;;;;;;11.06;74.3584;962.8619;;;;
2019/05/12 00:44:08;;;;;;;1.4;1.1;;;;;;;11.05;74.29785;962.8723;;;;
2019/05/12 00:46:33;;;;;;;1.5;1.2;;;;;;;11.04;74.68164;962.9399;;;;
2019/05/12 00:48:58;;;;;;;1.5;1.3;;;;;;;11.38;72.99316;962.962;;;;
2019/05/12 00:51:23;;;;;;;1.6;1.3;;;;;;;11.68;71.53809;963.0009;;;;
2019/05/12 00:53:49;;;;;;;1.3;1.2;;;;;;;11.19;73.38281;963.0826;;;;
2019/05/12 00:56:14;;;;;;;1.4;1.2;;;;;;;11.41;72.72754;963.1351;;;;
2019/05/12 00:58:39;;;;;;;1.4;1.3;;;;;;;11.46;71.94922;963.0778;;;;
2019/05/12 01:01:04;;;;;;;1.6;1.5;;;;;;;11.25;72.06543;963.0722;;;;
2019/05/12 01:03:29;;;;;;;1.6;1.5;;;;;;;10.73;75.48633;963.11;;;;
2019/05/12 01:05:55;;;;;;;2.2;1.5;;;;;;;10.83;74.04883;963.11;;;;
2019/05/12 01:08:21;;;;;;;1.7;1.6;;;;;;;10.8;74.44336;963.1411;;;;
2019/05/12 01:10:46;;;;;;;2.1;1.7;;;;;;;10.32;76.05859;963.2809;;;;
2019/05/12 01:13:13;;;;;;;1.6;1.5;;;;;;;10.71;74.60254;963.2612;;;;
2019/05/12 01:15:38;;;;;;;1.8;1.6;;;;;;;10.94;73.375;963.3038;;;;
2019/05/12 01:18:03;;;;;;;1.8;1.7;;;;;;;10.88;73.4834;963.3792;;;;
2019/05/12 01:20:28;;;;;;;2.1;1.8;;;;;;;10.7;74.54102;963.3639;;;;
2019/05/12 01:22:55;;;;;;;2.4;1.8;;;;;;;10.65;74.83594;963.4033;;;;
2019/05/12 01:25:20;;;;;;;1.9;1.8;;;;;;;10.92;72.78418;963.4338;;;;
2019/05/12 01:27:46;;;;;;;2.6;1.8;;;;;;;10.44;74.73242;963.5295;;;;
2019/05/12 01:30:11;;;;;;;1.7;1.6;;;;;;;10.32;75.16797;963.4852;;;;
2019/05/12 01:32:37;;;;;;;1.8;1.7;;;;;;;10.24;75.65625;963.5033;;;;
2019/05/12 01:35:02;;;;;;;1.8;1.7;;;;;;;10.14;75.25488;963.5369;;;;
2019/05/12 01:37:27;;;;;;;2.7;1.6;;;;;;;10.11;76.23242;963.6461;;;;
2019/05/12 01:39:52;;;;;;;2.2;1.8;;;;;;;10.21;75.35938;963.5865;;;;
2019/05/12 01:42:17;;;;;;;3.1;1.8;;;;;;;10.36;75.26758;963.7168;;;;
2019/05/12 01:44:42;;;;;;;2;1.8;;;;;;;9.93;76.51563;963.6861;;;;
2019/05/12 01:47:07;;;;;;;1.9;1.7;;;;;;;10.05;75.36523;963.8954;;;;
2019/05/12 01:49:32;;;;;;;2.2;2;;;;;;;10.01;75.58105;963.8723;;;;
2019/05/12 01:51:57;;;;;;;2.7;2.1;;;;;;;10.07;75.27734;963.9387;;;;
2019/05/12 01:54:22;;;;;;;2.2;2;;;;;;;10.13;75.15918;964.0453;;;;
2019/05/12 01:56:47;;;;;;;2.2;2;;;;;;;10.64;72.82031;963.9903;;;;
2019/05/12 01:59:13;;;;;;;2.4;1.8;;;;;;;10;75.58008;964.0776;;;;
2019/05/12 02:01:38;;;;;;;2.7;2.1;;;;;;;10.41;73.19141;964.1555;;;;
2019/05/12 02:04:04;;;;;;;2.7;1.8;;;;;;;10.28;74.43457;964.1772;;;;
2019/05/12 02:06:29;;;;;;;3;1.9;;;;;;;10;74.46777;964.2076;;;;
2019/05/12 02:08:57;;;;;;;2.1;1.9;;;;;;;10.33;73.30859;964.2243;;;;
2019/05/12 02:11:31;;;;;;;2.2;1.6;;;;;;;9.96;75.25781;964.3519;;;;
2019/05/12 02:13:45;;;;;;;2.2;1.9;;;;;;;10.18;74.76855;964.4283;;;;
2019/05/12 02:16:10;;;;;;;2.6;2.1;;;;;;;10.39;73.69238;964.5144;;;;
2019/05/12 02:18:36;;;;;;;3.9;2.2;;;;;;;10.63;72.71289;964.5552;;;;
2019/05/12 02:21:01;;;;;;;3;2;;;;;;;10.23;73.88672;964.5976;;;;
2019/05/12 02:23:26;;;;;;;2;1.7;;;;;;;10.19;72.88477;964.5909;;;;
2019/05/12 02:25:51;;;;;;;4;1.8;;;;;;;10.36;73.52441;964.6836;;;;
2019/05/12 02:28:16;;;;;;;2.2;1.8;;;;;;;10.39;73.39941;964.6133;;;;
2019/05/12 02:30:42;;;;;;;2.9;1.9;;;;;;;10.37;73.6543;964.7033;;;;
2019/05/12 02:33:07;;;;;;;3.1;1.6;;;;;;;9.86;74.76074;964.7454;;;;
2019/05/12 02:35:32;;;;;;;1.9;1.7;;;;;;;9.71;76.38281;964.7537;;;;
2019/05/12 02:37:57;;;;;;;2.2;1.7;;;;;;;10.2;74.44434;964.8275;;;;
2019/05/12 02:40:22;;;;;;;2.4;1.8;;;;;;;9.79;75.78809;964.8361;;;;
2019/05/12 02:42:47;;;;;;;2.2;1.6;;;;;;;10;74.24707;964.8957;;;;
2019/05/12 02:45:12;;;;;;;1.7;1.6;;;;;;;10.06;74.2207;964.9945;;;;
2019/05/12 02:47:37;;;;;;;2.2;1.8;;;;;;;9.94;74.59863;964.9927;;;;
2019/05/12 02:50:03;;;;;;;2.8;1.7;;;;;;;9.54;76.87988;964.9987;;;;
2019/05/12 02:52:28;;;;;;;1.8;1.6;;;;;;;9.83;75.67871;965.0287;;;;
2019/05/12 02:54:56;;;;;;;3.2;2;;;;;;;10;74.56152;965.04;;;;
2019/05/12 02:57:21;;;;;;;2;1.8;;;;;;;9.76;75.59668;964.9322;;;;
2019/05/12 02:59:47;;;;;;;2.9;1.8;;;;;;;9.96;75.37305;965.0853;;;;
2019/05/12 03:02:12;;;;;;;2.6;1.7;;;;;;;9.41;77.17188;965.1069;;;;
2019/05/12 03:04:37;;;;;;;2.4;1.8;;;;;;;9.79;75.61426;965.1689;;;;
2019/05/12 03:07:02;;;;;;;1.9;1.7;;;;;;;10.05;74.76953;965.33;;;;
2019/05/12 03:09:27;;;;;;;1.8;1.4;;;;;;;9.45;75.8584;965.2994;;;;
2019/05/12 03:11:53;;;;;;;2.1;1.3;;;;;;;9.23;77.85156;965.2758;;;;
2019/05/12 03:14:18;;;;;;;2.5;1.7;;;;;;;9.16;77.5;965.261;;;;
2019/05/12 03:16:45;;;;;;;2.2;1.7;;;;;;;9.68;74.99805;965.3178;;;;
2019/05/12 03:19:10;;;;;;;2.1;1.8;;;;;;;9.5;76.125;965.2908;;;;
2019/05/12 03:21:37;;;;;;;2.2;1.7;;;;;;;9.67;74.97266;965.3631;;;;
2019/05/12 03:24:02;;;;;;;2.2;1.7;;;;;;;9.21;75.42969;965.4004;;;;
2019/05/12 03:26:28;;;;;;;1.6;1.5;;;;;;;8.91;78.01563;965.5745;;;;
2019/05/12 03:28:53;;;;;;;3.1;1.8;;;;;;;9.17;76.87207;965.6223;;;;
2019/05/12 03:31:18;;;;;;;2.4;1.9;;;;;;;9.18;77.37598;965.7026;;;;
2019/05/12 03:33:43;;;;;;;2.8;2;;;;;;;9.55;75.36133;965.7291;;;;
2019/05/12 03:36:08;;;;;;;2.3;1.9;;;;;;;9.51;75.47168;965.7483;;;;
2019/05/12 03:38:34;;;;;;;3.1;2;;;;;;;9.33;76.30371;965.7779;;;;
2019/05/12 03:40:59;;;;;;;3.3;1.8;;;;;;;9.25;76.2666;965.9033;;;;
2019/05/12 03:43:24;;;;;;;2.4;1.9;;;;;;;9.53;75.11035;965.7547;;;;
2019/05/12 03:45:49;;;;;;;2.1;1.9;;;;;;;9.74;74.63477;965.8965;;;;
2019/05/12 03:48:14;;;;;;;2.3;1.9;;;;;;;9.6;74.11914;965.8761;;;;
2019/05/12 03:50:39;;;;;;;3.3;1.8;;;;;;;9.35;75.40723;966.0303;;;;
2019/05/12 03:53:04;;;;;;;2.3;1.8;;;;;;;9;77.15625;966.053;;;;
2019/05/12 03:55:29;;;;;;;2.8;1.8;;;;;;;9.07;76.47949;966.0678;;;;
2019/05/12 03:57:55;;;;;;;2.2;1.7;;;;;;;8.8;78.20703;966.1534;;;;
2019/05/12 04:02:29;;;;;;;3.3;2.2;;;;;;;9.53;74.27051;966.1914;;;;
2019/05/12 04:04:54;;;;;;;2.6;2.3;;;;;;;9.58;74.24414;966.2478;;;;
2019/05/12 04:07:19;;;;;;;2.5;2;;;;;;;9.73;73.54492;966.2971;;;;
2019/05/12 04:09:44;;;;;;;3.1;2.8;;;;;;;9.61;73.28809;966.309;;;;
2019/05/12 04:12:09;;;;;;;2.6;2.2;;;;;;;9.71;72.89746;966.4747;;;;
2019/05/12 04:14:34;;;;;;;3.3;2.2;;;;;;;9.1;75.63281;966.4697;;;;
2019/05/12 04:17:00;;;;;;;4.1;2.4;;;;;;;9.05;76.00879;966.5559;;;;
2019/05/12 04:19:25;;;;;;;2.9;2.2;;;;;;;9.04;75.49512;966.5352;;;;
2019/05/12 04:21:50;;;;;;;3.7;2.6;;;;;;;9.26;75.10156;966.5905;;;;
2019/05/12 04:24:17;;;;;;;4.4;2.5;;;;;;;9.39;74.01367;966.6166;;;;
2019/05/12 04:26:42;;;;;;;3.4;2.6;;;;;;;9.2;75.14941;966.7043;;;;
2019/05/12 04:29:07;;;;;;;4.1;2.7;;;;;;;9.05;74.87598;966.6898;;;;
2019/05/12 04:31:32;;;;;;;4.9;2.7;;;;;;;9;75.09082;966.749;;;;
2019/05/12 04:33:57;;;;;;;4.2;2.6;;;;;;;9.59;72.78223;966.7846;;;;
2019/05/12 04:36:23;;;;;;;4.2;3;;;;;;;9.5;73.02539;966.8642;;;;
2019/05/12 04:38:48;;;;;;;5.5;3.1;;;;;;;9.44;73.28516;966.9507;;;;
2019/05/12 04:41:14;;;;;;;5.2;2.9;;;;;;;9.15;73.87793;966.9504;;;;
2019/05/12 04:43:39;;;;;;;3.5;2.6;;;;;;;9.03;75.9707;966.9908;;;;
2019/05/12 04:46:05;;;;;;;4.5;2.8;;;;;;;9.16;74.37012;967.091;;;;
2019/05/12 04:48:30;;;;;;;3.8;3.1;;;;;;;9.21;73.58301;967.0747;;;;
2019/05/12 04:50:55;;;;;;;3.4;2.8;;;;;;;9.32;73.81348;967.0784;;;;
2019/05/12 04:53:20;;;;;;;4.8;3.3;;;;;;;9.05;74.2334;967.2352;;;;
2019/05/12 04:55:45;;;;;;;4.7;3;;;;;;;8.67;75.81445;967.2475;;;;
2019/05/12 04:58:10;;;;;;;4.2;3;;;;;;;8.83;75.29297;967.3222;;;;
2019/05/12 05:00:35;;;;;;;4.4;3.1;;;;;;;8.91;75.33203;967.3775;;;;
2019/05/12 05:03:00;;;;;;;4.8;3.4;;;;;;;8.86;74.9375;967.4031;;;;
2019/05/12 05:05:25;;;;;;;4.7;3.2;;;;;;;8.69;75.41992;967.4695;;;;
2019/05/12 05:07:50;;;;;;;5.8;3.6;;;;;;;9.25;74.02148;967.5284;;;;
2019/05/12 05:10:26;;;;;;;4.4;3.3;;;;;;;9.5;73.21191;967.6089;;;;
2019/05/12 05:12:51;;;;;;;5.2;3.2;;;;;;;9.36;73.17676;967.701;;;;
2019/05/12 05:15:17;;;;;;;6.5;3.6;;;;;;;9.73;71.79004;967.7321;;;;
2019/05/12 05:17:42;;;;;;;5.2;3.3;;;;;;;9.63;72.3584;967.7557;;;;
2019/05/12 05:20:07;;;;;;;4.3;3.3;;;;;;;9.68;71.75781;967.8474;;;;
2019/05/12 05:22:32;;;;;;;6.1;3.4;;;;;;;9.48;72.00684;967.8711;;;;
2019/05/12 05:24:57;;;;;;;5.6;3.4;;;;;;;9.09;73.51563;967.8914;;;;
2019/05/12 05:27:22;;;;;;;6.4;3.4;;;;;;;9.09;73.89258;968.0201;;;;
2019/05/12 05:29:48;;;;;;;6;3.2;;;;;;;9.58;72.43066;968.0334;;;;
2019/05/12 05:32:13;;;;;;;5.9;3.4;;;;;;;9.68;71.39551;968.0553;;;;
2019/05/12 05:34:38;;;;;;;6.1;3.3;;;;;;;9.33;72.36426;968.0308;;;;
2019/05/12 05:37:03;;;;;;;5.6;3.3;;;;;;;9.38;72.44434;968.1339;;;;
2019/05/12 05:39:28;;;;;;;5.3;3.3;;;;;;;9;73.46582;968.1913;;;;
2019/05/12 05:41:53;;;;;;;5;3.2;;;;;;;9.49;72.03027;968.3078;;;;
2019/05/12 05:44:18;;;;;;;5.6;3.2;;;;;;;9.65;70.43066;968.3383;;;;
2019/05/12 05:46:43;;;;;;;5.4;3.2;;;;;;;9.32;72.0957;968.3826;;;;
2019/05/12 05:49:08;;;;;;;3.8;2.9;;;;;;;9.05;73.31152;968.3169;;;;
2019/05/12 05:51:33;;;;;;;5.4;3.3;;;;;;;9.35;72.16992;968.3647;;;;
2019/05/12 05:53:59;;;;;;;5.7;3.4;;;;;;;8.89;73.51758;968.4938;;;;
2019/05/12 05:56:24;;;;;;;4.9;3.1;;;;;;;8.76;73.50684;968.5622;;;;
2019/05/12 05:58:49;;;;;;;6;3.3;;;;;;;8.59;74.19141;968.5661;;;;
2019/05/12 06:01:15;;;;;;;5;3;;;;;;;9.09;72.65332;968.6096;;;;
2019/05/12 06:03:40;;;;;;;6.6;3.1;;;;;;;9.06;72.34473;968.6573;;;;
2019/05/12 06:06:05;;;;;;;4.9;3.3;;;;;;;8.75;73.41211;968.6891;;;;
2019/05/12 06:08:32;;;;;;;5.8;3.5;;;;;;;8.81;73.3623;968.6755;;;;
2019/05/12 06:10:57;;;;;;;5.9;3.1;;;;;;;8.74;72.59375;968.7731;;;;
2019/05/12 06:13:22;;;;;;;5.4;3.3;;;;;;;8.86;71.95898;968.7932;;;;
2019/05/12 06:15:48;;;;;;;5.2;3.1;;;;;;;8.47;74.14551;968.7975;;;;
2019/05/12 06:18:14;;;;;;;6.7;3.4;;;;;;;8.54;73.78418;968.8167;;;;
2019/05/12 06:20:40;;;;;;;6.6;3.4;;;;;;;8.83;73.0752;968.85;;;;
2019/05/12 06:23:07;;;;;;;5.8;3.2;;;;;;;9.07;72.05273;968.9116;;;;
2019/05/12 06:25:32;;;;;;;5.4;3.5;;;;;;;9.08;71.53027;968.9523;;;;
2019/05/12 06:27:57;;;;;;;5.7;3.4;;;;;;;9.34;70.38184;968.9895;;;;
2019/05/12 06:30:22;;;;;;;5.1;3.1;;;;;;;8.96;71.52148;969.0803;;;;
2019/05/12 06:32:47;;;;;;;7;3.2;;;;;;;9.15;70.7002;969.0284;;;;
2019/05/12 06:35:12;;;;;;;6.7;3.2;;;;;;;8.93;71.38867;969.1019;;;;
2019/05/12 06:37:38;;;;;;;5.3;3;;;;;;;8.55;72.53711;969.166;;;;
2019/05/12 06:40:03;;;;;;;5.1;3.2;;;;;;;8.82;72.5498;969.2054;;;;
2019/05/12 06:42:29;;;;;;;5.5;3.3;;;;;;;8.53;72.56934;969.2335;;;;
2019/05/12 06:44:54;;;;;;;4.5;2.8;;;;;;;8.58;71.91211;969.265;;;;
2019/05/12 06:47:19;;;;;;;6.7;3.3;;;;;;;8.69;71.46582;969.3203;;;;
2019/05/12 06:49:45;;;;;;;7.5;3.5;;;;;;;8.67;70.63477;969.2371;;;;
2019/05/12 06:52:11;;;;;;;5.5;3.3;;;;;;;9.04;70.00586;969.288;;;;
2019/05/12 06:54:36;;;;;;;9;3.4;;;;;;;9.28;69.64551;969.3031;;;;
2019/05/12 06:57:01;;;;;;;6.8;3.4;;;;;;;9.44;69.20508;969.3416;;;;
2019/05/12 06:59:26;;;;;;;8.3;3.5;;;;;;;9.58;68.32715;969.3929;;;;
2019/05/12 07:01:51;;;;;;;5.5;3.4;;;;;;;9.19;70.25195;969.45;;;;
2019/05/12 07:04:16;;;;;;;6.7;3.6;;;;;;;9.61;68.11035;969.5051;;;;
2019/05/12 07:06:41;;;;;;;7.2;3.5;;;;;;;8.61;72.00098;969.5187;;;;
2019/05/12 07:09:07;;;;;;;5;3;;;;;;;8.93;70.53613;969.5513;;;;
2019/05/12 07:11:32;;;;;;;8.1;3.6;;;;;;;8.63;71.24512;969.5334;;;;
2019/05/12 07:13:57;;;;;;;6.8;3.1;;;;;;;8.69;70.39258;969.5278;;;;
2019/05/12 07:16:22;;;;;;;6.8;3.5;;;;;;;8.57;70.94336;969.6337;;;;
2019/05/12 07:18:47;;;;;;;7.9;3.3;;;;;;;8.81;70.38574;969.649;;;;
2019/05/12 07:21:12;;;;;;;5.9;3;;;;;;;8.83;71.87305;969.7197;;;;
2019/05/12 07:23:37;;;;;;;6.3;3.3;;;;;;;9.21;68.88672;969.5736;;;;
2019/05/12 07:26:02;;;;;;;6.6;3.7;;;;;;;8.99;70.94141;969.7065;;;;
2019/05/12 07:28:27;;;;;;;8.2;4;;;;;;;9.07;70.28906;969.6259;;;;
2019/05/12 07:30:52;;;;;;;6.1;3.3;;;;;;;9.07;70.79297;969.7506;;;;
2019/05/12 07:33:18;;;;;;;7;4;;;;;;;9.04;71.48926;969.7294;;;;
2019/05/12 07:35:43;;;;;;;8.1;4.2;;;;;;;8.59;72.87305;969.7598;;;;
2019/05/12 07:38:09;;;;;;;9.8;4.2;;;;;;;8.77;73.24023;969.8847;;;;
2019/05/12 07:40:34;;;;;;;8.1;4.5;;;;;;;9;71.94727;969.9313;;;;
2019/05/12 07:42:59;;;;;;;7;4.4;;;;;;;9.23;71.36816;969.9817;;;;
2019/05/12 07:45:24;;;;;;;8.8;4.4;;;;;;;9.45;70.34082;970.0591;;;;
2019/05/12 07:47:49;;;;;;;8.4;4.3;;;;;;;9.44;70.07031;970.0396;;;;
2019/05/12 07:50:15;;;;;;;7;4.7;;;;;;;9.1;71.27637;970.0745;;;;
2019/05/12 07:52:40;;;;;;;9.3;5;;;;;;;9;71.36328;970.1001;;;;
2019/05/12 07:55:05;;;;;;;7.9;5.1;;;;;;;9.2;71.20996;970.1813;;;;
2019/05/12 07:57:30;;;;;;;8.2;4.8;;;;;;;9.07;71.13184;970.1493;;;;
2019/05/12 07:59:55;;;;;;;10.6;5.4;;;;;;;8.55;72.5957;970.173;;;;
2019/05/12 08:02:21;;;;;;;9.9;5.8;;;;;;;8.6;73.375;970.205;;;;
2019/05/12 08:04:47;;;;;;;9.1;5.8;;;;;;;8.79;72.70703;970.2747;;;;
2019/05/12 08:07:12;;;;;;;11;6.3;;;;;;;9.05;71.73438;970.2737;;;;
2019/05/12 08:09:37;;;;;;;14.9;6.6;;;;;;;8.87;72.25391;970.3098;;;;
2019/05/12 08:12:02;;;;;;;9.6;6;;;;;;;9.02;72.66406;970.1916;;;;
2019/05/12 08:14:27;;;;;;;9.1;6;;;;;;;8.73;74.08594;970.2189;;;;
2019/05/12 08:16:52;;;;;;;9.1;5.8;;;;;;;8.53;73.45605;970.3661;;;;
2019/05/12 08:19:17;;;;;;;8.8;6.3;;;;;;;8.66;74.20215;970.3293;;;;
2019/05/12 08:21:43;;;;;;;11.3;6.3;;;;;;;8.35;74.73242;970.3586;;;;
2019/05/12 08:24:08;;;;;;;9;6.8;;;;;;;9.06;72.77734;970.4753;;;;
2019/05/12 08:26:33;;;;;;;11.2;6.3;;;;;;;8.8;73.93359;970.4124;;;;
2019/05/12 08:29:00;;;;;;;10.6;6.9;;;;;;;9.01;71.79883;970.3575;;;;
2019/05/12 08:31:25;;;;;;;9.7;6.5;;;;;;;9.05;72.20117;970.4515;;;;
2019/05/12 08:33:50;;;;;;;10.5;6.8;;;;;;;9.22;72.63867;970.5075;;;;
2019/05/12 08:36:15;;;;;;;9.6;6.6;;;;;;;9.35;69.20313;970.4904;;;;
2019/05/12 08:38:40;;;;;;;11.6;6.9;;;;;;;9.32;70.50586;970.5302;;;;
2019/05/12 08:41:05;;;;;;;8.7;6.3;;;;;;;9.26;70.89453;970.6344;;;;
2019/05/12 08:43:30;;;;;;;9.7;6.7;;;;;;;9.75;69.90918;970.5324;;;;
2019/05/12 08:45:56;;;;;;;11.7;7.1;;;;;;;10.01;69.14355;970.5386;;;;
2019/05/12 08:48:21;;;;;;;10;7.1;;;;;;;9.53;70.76074;970.641;;;;
2019/05/12 08:50:46;;;;;;;14;7.2;;;;;;;9.87;69.70605;970.6525;;;;
2019/05/12 08:53:11;;;;;;;11.5;7.2;;;;;;;9.29;71.6123;970.7296;;;;
2019/05/12 08:55:36;;;;;;;11.9;7.6;;;;;;;9.76;69.99316;970.6653;;;;
2019/05/12 08:58:02;;;;;;;11.8;7.6;;;;;;;10.09;69.95215;970.7647;;;;
2019/05/12 09:00:28;;;;;;;10.7;7.3;;;;;;;9.63;71.31836;970.8103;;;;
2019/05/12 09:02:53;;;;;;;8.8;7;;;;;;;9.58;71.08594;970.8408;;;;
2019/05/12 09:05:18;;;;;;;11.8;7;;;;;;;9.85;69.36523;970.8541;;;;
2019/05/12 09:07:43;;;;;;;10.8;7.1;;;;;;;9.47;71.69824;970.9366;;;;
2019/05/12 09:10:08;;;;;;;11.1;7.1;;;;;;;9.39;71.99219;971.0472;;;;
2019/05/12 09:12:34;;;;;;;11.7;7.1;;;;;;;9.81;71.07813;971.0602;;;;
2019/05/12 09:14:59;;;;;;;10.9;7.4;;;;;;;9.41;71.7373;971.0136;;;;
2019/05/12 09:17:24;;;;;;;12.6;7.8;;;;;;;9.8;70.39746;971.0483;;;;
2019/05/12 09:19:49;;;;;;;12.3;8.1;;;;;;;10;70.47656;971.0653;;;;
2019/05/12 09:22:15;;;;;;;12;7.7;;;;;;;9.89;71.33691;971.1822;;;;
2019/05/12 09:24:40;;;;;;;10.2;7.3;;;;;;;9.7;72.03125;971.2028;;;;
2019/05/12 09:27:06;;;;;;;12.8;7.8;;;;;;;9.78;70.96875;971.2156;;;;
2019/05/12 09:29:31;;;;;;;11;7.5;;;;;;;9.55;71.5957;971.2394;;;;
2019/05/12 09:31:56;;;;;;;10.8;6.9;;;;;;;9.1;73.4834;971.2914;;;;
2019/05/12 09:34:23;;;;;;;11.3;7.5;;;;;;;9.9;70.89355;971.3187;;;;
2019/05/12 09:36:48;;;;;;;12.3;7.2;;;;;;;9.7;71.87793;971.3899;;;;
2019/05/12 09:39:14;;;;;;;10.8;6.8;;;;;;;9.77;71.23633;971.3131;;;;
2019/05/12 09:41:39;;;;;;;11.1;6.6;;;;;;;9.55;72.17871;971.3745;;;;
2019/05/12 09:44:04;;;;;;;10.7;6.8;;;;;;;9.91;70.83594;971.4476;;;;
2019/05/12 09:46:29;;;;;;;12.2;7;;;;;;;10.33;69.64063;971.4943;;;;
2019/05/12 09:48:54;;;;;;;12.5;7.5;;;;;;;10.44;69.80957;971.5425;;;;
2019/05/12 09:51:19;;;;;;;9.5;7;;;;;;;10.11;70.8457;971.6199;;;;
2019/05/12 09:53:45;;;;;;;13.7;7.7;;;;;;;10.28;70.56934;971.5105;;;;
2019/05/12 09:56:11;;;;;;;11;7.5;;;;;;;10.01;72.09277;971.5661;;;;
2019/05/12 09:58:36;;;;;;;13.1;7.8;;;;;;;10.37;70.26758;971.6003;;;;
2019/05/12 10:01:02;;;;;;;12.7;7.9;;;;;;;10.78;69.31445;971.5493;;;;
2019/05/12 10:03:27;;;;;;;14.9;8.4;;;;;;;10.82;69.61426;971.5811;;;;
2019/05/12 10:05:52;;;;;;;11.5;7.9;;;;;;;10.85;69.60645;971.5983;;;;
2019/05/12 10:08:17;;;;;;;11.4;7.6;;;;;;;10.74;70.23438;971.6505;;;;
2019/05/12 10:10:42;;;;;;;13.2;8.3;;;;;;;10.89;69.50684;971.6312;;;;
2019/05/12 10:13:07;;;;;;;14.2;8.6;;;;;;;11.16;68.42578;971.6135;;;;
2019/05/12 10:15:32;;;;;;;12.5;8;;;;;;;10.83;69.65137;971.623;;;;
2019/05/12 10:17:58;;;;;;;12.3;8.1;;;;;;;10.78;70.26367;971.6795;;;;
2019/05/12 10:20:23;;;;;;;13.2;8.3;;;;;;;11.02;68.98828;971.6889;;;;
2019/05/12 10:22:48;;;;;;;12;8.4;;;;;;;11.18;69.11914;971.6669;;;;
2019/05/12 10:25:13;;;;;;;12.9;8.6;;;;;;;11.11;68.81445;971.6741;;;;
2019/05/12 10:27:38;;;;;;;13.3;8.7;;;;;;;11.3;68.24707;971.8298;;;;
2019/05/12 10:30:03;;;;;;;12.4;8.6;;;;;;;11.07;69.38379;971.8586;;;;
2019/05/12 10:32:30;;;;;;;13.1;8.7;;;;;;;11.02;69.0957;971.9353;;;;
2019/05/12 10:34:55;;;;;;;13.6;9;;;;;;;11.01;71.13281;971.9857;;;;
2019/05/12 10:37:21;;;;;;;15.9;9.2;;;;;;;11.07;70.95605;971.9147;;;;
2019/05/12 10:39:46;;;;;;;12.4;8.7;;;;;;;11.06;69.49902;971.9252;;;;
2019/05/12 10:42:12;;;;;;;12.7;8.1;;;;;;;10.78;70.5332;971.8488;;;;
2019/05/12 10:44:37;;;;;;;14.3;8.4;;;;;;;11.11;70.01172;971.8825;;;;
2019/05/12 10:47:03;;;;;;;11.9;7.9;;;;;;;11.23;68.16504;971.8109;;;;
2019/05/12 10:49:28;;;;;;;12.3;8.2;;;;;;;11.04;70.8584;971.8063;;;;
2019/05/12 10:51:53;;;;;;;16.3;8.5;;;;;;;11.22;69.85449;971.812;;;;
2019/05/12 10:54:18;;;;;;;13.1;8.6;;;;;;;11.51;67.80859;971.8528;;;;
2019/05/12 10:56:45;;;;;;;13.4;7.8;;;;;;;11.58;67.55078;971.8536;;;;
2019/05/12 10:59:10;;;;;;;12.3;8.6;;;;;;;11.73;68.25586;971.8342;;;;
2019/05/12 11:01:37;;;;;;;15;8.9;;;;;;;11.82;68.42285;971.8455;;;;
2019/05/12 11:04:02;;;;;;;15.8;8.6;;;;;;;11.85;69.02734;971.8705;;;;
2019/05/12 11:06:28;;;;;;;15.5;9.1;;;;;;;11.83;68.56543;971.9562;;;;
2019/05/12 11:08:53;;;;;;;14;9;;;;;;;11.99;68.70801;971.9433;;;;
2019/05/12 11:11:18;;;;;;;16.7;9.2;;;;;;;12.14;67.23828;971.9574;;;;
2019/05/12 11:13:44;;;;;;;14.1;9.3;;;;;;;12.07;67.875;971.9568;;;;
2019/05/12 11:18:47;;;;;;;16.4;9.1;;;;;;;11.88;67.70313;971.9398;;;;
2019/05/12 11:21:12;;;;;;;15;8.6;;;;;;;11.66;67.32813;971.9625;;;;
2019/05/12 11:23:38;;;;;;;15.3;8.5;;;;;;;11.66;66.76465;972.0107;;;;
2019/05/12 11:26:03;;;;;;;13.6;8.5;;;;;;;10.86;68.92773;971.9606;;;;
2019/05/12 11:28:30;;;;;;;12.6;8.2;;;;;;;10.59;71.12305;971.935;;;;
2019/05/12 11:30:56;;;;;;;12.3;7.9;;;;;;;10.63;70.34668;972.045;;;;
2019/05/12 11:33:23;;;;;;;12.8;7.5;;;;;;;10.76;69.63965;972.0207;;;;
2019/05/12 11:35:50;;;;;;;13.3;8.3;;;;;;;11.18;68.84961;972.0578;;;;
2019/05/12 11:38:13;;;;;;;15.1;8.1;;;;;;;11.2;68.17285;972.0583;;;;
2019/05/12 11:40:39;;;;;;;11.6;8;;;;;;;10.94;69.01074;972.1219;;;;
2019/05/12 11:43:04;;;;;;;12;7.4;;;;;;;10.76;69.2998;972.164;;;;
2019/05/12 11:45:29;;;;;;;14.3;7.7;;;;;;;10.88;69.83496;972.1874;;;;
2019/05/12 11:47:54;;;;;;;12.9;7.5;;;;;;;11.01;67.94336;972.1981;;;;
2019/05/12 11:50:19;;;;;;;10.4;7.1;;;;;;;11.3;66.35645;972.2299;;;;
2019/05/12 11:52:44;;;;;;;14.3;7.9;;;;;;;11.62;65.56055;972.2556;;;;
2019/05/12 11:55:09;;;;;;;15.6;7.9;;;;;;;11.55;67.16992;972.2288;;;;
2019/05/12 11:57:34;;;;;;;12.7;8.4;;;;;;;11.7;66.59375;972.2955;;;;
2019/05/12 12:00:00;;;;;;;12.6;8.1;;;;;;;11.82;66.49512;972.2981;;;;
2019/05/12 12:02:25;;;;;;;12.9;8.1;;;;;;;11.75;65.89551;972.3181;;;;
2019/05/12 12:04:50;;;;;;;14.1;8.2;;;;;;;11.64;66.04395;972.3326;;;;
2019/05/12 12:07:15;;;;;;;14.7;8.6;;;;;;;11.76;64.74609;972.347;;;;
2019/05/12 12:09:40;;;;;;;13.5;8.7;;;;;;;11.71;66.00879;972.3892;;;;
2019/05/12 12:12:05;;;;;;;12.3;8.7;;;;;;;11.76;65.13379;972.3861;;;;
2019/05/12 12:14:31;;;;;;;13.9;8.1;;;;;;;11.64;66.30176;972.3703;;;;
2019/05/12 12:16:56;;;;;;;11.9;8.1;;;;;;;11.38;65.96973;972.4954;;;;
2019/05/12 12:19:21;;;;;;;14.5;7.8;;;;;;;11.19;67.26758;972.4816;;;;
2019/05/12 12:21:46;;;;;;;13;7.6;;;;;;;11.24;66.73535;972.5084;;;;
2019/05/12 12:24:11;;;;;;;12.1;7.5;;;;;;;11.41;65.72852;972.5284;;;;
2019/05/12 12:26:36;;;;;;;12.3;7.4;;;;;;;11.2;66.21094;972.5457;;;;
2019/05/12 12:29:01;;;;;;;12.2;8.3;;;;;;;10.93;68.75195;972.562;;;;
2019/05/12 12:31:43;;;;;;;15.4;8.1;;;;;;;11.38;66.16992;972.5164;;;;
2019/05/12 12:33:51;;;;;;;10.6;7.1;;;;;;;10.9;67.39844;972.5369;;;;
2019/05/12 12:36:18;;;;;;;14.2;7.5;;;;;;;11.28;66.6123;972.4972;;;;
2019/05/12 12:38:43;;;;;;;10.9;7.4;;;;;;;11.23;67.55469;972.5407;;;;
2019/05/12 12:41:08;;;;;;;16.1;7.6;;;;;;;11.53;65.76758;972.5101;;;;
2019/05/12 12:43:34;;;;;;;12.5;7.1;;;;;;;11.73;65.08301;972.5034;;;;
2019/05/12 12:46:03;;;;;;;15.5;7.3;;;;;;;11.73;64.99023;972.5595;;;;
2019/05/12 12:48:25;;;;;;;12.4;7.2;;;;;;;11.93;64.7959;972.5496;;;;
2019/05/12 12:50:49;;;;;;;11.7;7.3;;;;;;;12.04;64.74121;972.5492;;;;
2019/05/12 12:53:15;;;;;;;13.2;7.2;;;;;;;11.99;64.80371;972.5748;;;;
2019/05/12 12:55:40;;;;;;;13;7.1;;;;;;;12.15;63.71094;972.6741;;;;
2019/05/12 12:58:06;;;;;;;12.8;7;;;;;;;12.3;63.00293;972.6492;;;;
2019/05/12 13:00:31;;;;;;;11.4;6.8;;;;;;;12.18;64.04395;972.6951;;;;
2019/05/12 13:02:56;;;;;;;16.1;7.2;;;;;;;12.42;62.86816;972.6685;;;;
2019/05/12 13:05:21;;;;;;;12.1;6.6;;;;;;;12.34;62.11426;972.7434;;;;
2019/05/12 13:07:46;;;;;;;11.7;6.5;;;;;;;12.29;63.82617;972.7548;;;;
2019/05/12 13:10:11;;;;;;;12;7.1;;;;;;;12.48;63.35938;972.8411;;;;
2019/05/12 13:12:36;;;;;;;11.7;6.1;;;;;;;12.31;62.26367;972.7615;;;;
2019/05/12 13:15:02;;;;;;;11.4;6.6;;;;;;;12.37;62.18945;972.7684;;;;
2019/05/12 13:17:26;;;;;;;10.6;6.3;;;;;;;12.57;60.38086;972.7621;;;;
2019/05/12 13:19:53;;;;;;;11.5;6.6;;;;;;;12.57;61.0752;972.7439;;;;
2019/05/12 13:22:18;;;;;;;9.5;6.6;;;;;;;12.49;61.62891;972.7747;;;;
2019/05/12 13:24:44;;;;;;;10.3;6.2;;;;;;;12.23;62.33398;972.7218;;;;
2019/05/12 13:27:09;;;;;;;11.7;7;;;;;;;12.32;63.71191;972.7941;;;;
2019/05/12 13:29:34;;;;;;;10.6;6.5;;;;;;;12.34;62.69238;972.7905;;;;
2019/05/12 13:32:00;;;;;;;10.8;6.3;;;;;;;12.48;62.20508;972.7418;;;;
2019/05/12 13:34:25;;;;;;;11.5;6.8;;;;;;;12.5;61.79688;972.8203;;;;
2019/05/12 13:36:51;;;;;;;12;6.6;;;;;;;12.44;62.50586;972.8173;;;;
2019/05/12 13:39:16;;;;;;;11.8;7.4;;;;;;;12.51;62.64551;972.8883;;;;
2019/05/12 13:41:42;;;;;;;11.5;7;;;;;;;12.58;62.50293;972.9292;;;;
2019/05/12 13:44:07;;;;;;;10.9;7.4;;;;;;;12.58;62.92676;972.9553;;;;
2019/05/12 13:46:32;;;;;;;15.7;8.6;;;;;;;12.56;62.62793;972.9291;;;;
2019/05/12 13:48:58;;;;;;;11.5;7.2;;;;;;;12.42;62.31348;972.9177;;;;
2019/05/12 13:51:23;;;;;;;12.7;7.2;;;;;;;12.57;62.32324;972.928;;;;
2019/05/12 13:53:50;;;;;;;11.6;7.2;;;;;;;12.62;62.0127;972.923;;;;
2019/05/12 13:56:15;;;;;;;11.2;6.9;;;;;;;12.61;61.7998;972.8552;;;;
2019/05/12 13:58:43;;;;;;;12;6.9;;;;;;;12.67;62.11328;972.9285;;;;
2019/05/12 14:01:08;;;;;;;12.2;7;;;;;;;12.67;62.2207;972.8842;;;;
2019/05/12 14:03:33;;;;;;;12.1;7.1;;;;;;;12.65;61.5459;972.9348;;;;
2019/05/12 14:05:58;;;;;;;13.7;7.8;;;;;;;12.67;63.16309;972.8972;;;;
2019/05/12 14:08:23;;;;;;;11.6;7.2;;;;;;;12.7;63.15625;972.9353;;;;
2019/05/12 14:10:48;;;;;;;11.3;7.3;;;;;;;12.55;63.59277;972.848;;;;
2019/05/12 14:13:16;;;;;;;10.6;6.4;;;;;;;12.25;62.16016;972.8315;;;;
2019/05/12 14:15:41;;;;;;;11.9;6.9;;;;;;;12.48;62.2998;972.8281;;;;
2019/05/12 14:18:06;;;;;;;13.9;7.1;;;;;;;12.58;62.96094;972.8168;;;;
2019/05/12 14:20:31;;;;;;;10.8;6.7;;;;;;;12.56;62.48828;972.8717;;;;